Lions Gate Bridge — H9LV — position and weather

sailwx.info

Track history (hours):
 
Tides and Currents Weather Stations Pressure Air Temp Water Temp Dewpoint Dewpoint Depression Visibility Wind Speed Wind Dir Waves Ship Positions

Lions Gate Bridge

Last reported at 2014-Jul-19 10:32 UTC. Time now 2014-Jul-24 17:51 UTC.
Position N 35°28' E 141°01'.

Length 284.7 m; beam 40 m.

Type: Cargo ship. MMSI: 351086000.

Date/timePositionNaut miles runAvg speedWind from/ knotsBaromVisibWave heightAir tempDewpointWater temp
2014-Jul-19 10:32N 35°28' E 141°01'2520.8
2014-Jul-19 09:20N 35°10' E 140°40'1519.4
2014-Jul-19 08:33N 34°59' E 140°26'2019.8
2014-Jul-19 07:34N 34°52' E 140°04'1717.3
2014-Jul-19 06:33N 34°54' E 139°43'1717.4
2014-Jul-19 05:33N 35°11' E 139°46'1211.8
2014-Jul-19 04:33N 35°22' E 139°42'1312.9
2014-Jul-19 03:33N 35°34' E 139°49'3 3.4
2014-Jul-19 02:31N 35°37' E 139°46'0 0.0
2014-Jul-19 01:31N 35°37' E 139°46'0 0.0
2014-Jul-19 00:31N 35°37' E 139°46'0 0.0
2014-Jul-18 23:31N 35°37' E 139°46'0 0.0
2014-Jul-18 22:31N 35°37' E 139°46'0 0.0
2014-Jul-18 21:31N 35°37' E 139°46'0 0.0
2014-Jul-18 20:28N 35°37' E 139°46'0 0.0
2014-Jul-18 19:31N 35°37' E 139°46'0 0.0
2014-Jul-18 18:25N 35°37' E 139°46'0 0.0
2014-Jul-18 17:25N 35°37' E 139°46'0 0.0
2014-Jul-18 16:31N 35°37' E 139°46'0 0.0
2014-Jul-18 15:31N 35°37' E 139°46'0 0.0
2014-Jul-18 14:31N 35°37' E 139°46'0 0.0
2014-Jul-18 13:28N 35°37' E 139°46'0 0.0
2014-Jul-18 12:28N 35°37' E 139°46'0 0.0
2014-Jul-18 11:31N 35°37' E 139°46'0 0.0
2014-Jul-18 10:31N 35°37' E 139°46'0 0.0
2014-Jul-18 09:28N 35°37' E 139°46'0 0.0
2014-Jul-18 08:31N 35°37' E 139°46'3 3.0
2014-Jul-18 07:33N 35°35' E 139°48'1111.1
2014-Jul-18 06:34N 35°24' E 139°46'1212.0
2014-Jul-18 05:34N 35°12' E 139°47'9 9.3
2014-Jul-18 04:34N 35°03' E 139°42'1010.1
2014-Jul-18 03:33N 34°58' E 139°31'5717.1
2014-Jul-18 00:13N 34°28' E 138°32'  
2014-Jul-14 22:23N 24°49' E 119°42'2123.9
2014-Jul-14 21:31N 24°37' E 119°23'2322.6
2014-Jul-14 20:29N 24°24' E 119°02'2921.8
2014-Jul-14 19:08N 24°05' E 118°36'1321.5
2014-Jul-14 18:33N 23°58' E 118°25'2221.7
2014-Jul-14 17:32N 23°44' E 118°07'7223.5
2014-Jul-14 14:27N 23°00' E 117°04'2223.4
2014-Jul-14 13:32N 22°47' E 116°45'13819.6
2014-Jul-14 06:31N 22°34' E 114°17'1 1.4
2014-Jul-14 05:31N 22°34' E 114°16'0 0.0
2014-Jul-14 04:31N 22°34' E 114°16'0 0.0
2014-Jul-14 03:32N 22°34' E 114°16'0 0.0
2014-Jul-14 02:32N 22°34' E 114°16'0 0.0
2014-Jul-14 01:32N 22°34' E 114°16'0 0.0
2014-Jul-14 00:32N 22°34' E 114°16'0 0.0
2014-Jul-13 23:32N 22°34' E 114°16'0 0.0
2014-Jul-13 22:31N 22°34' E 114°16'0 0.0
2014-Jul-13 21:32N 22°34' E 114°16'0 0.0
2014-Jul-13 20:32N 22°34' E 114°16'0 0.0
2014-Jul-13 19:32N 22°34' E 114°16'0 0.0
2014-Jul-13 18:31N 22°34' E 114°16'0 0.0
2014-Jul-13 17:31N 22°34' E 114°16'0 0.0
2014-Jul-13 16:32N 22°34' E 114°16'0 0.0
2014-Jul-13 15:31N 22°34' E 114°16'0 0.0
2014-Jul-13 14:31N 22°34' E 114°16'0 0.0
2014-Jul-13 13:31N 22°34' E 114°16'0 0.1
2014-Jul-13 12:32N 22°34' E 114°15'0 0.1
2014-Jul-13 11:32N 22°34' E 114°16'0 0.1
2014-Jul-13 10:32N 22°34' E 114°15'0 0.1
2014-Jul-13 09:31N 22°34' E 114°16'0 0.0
2014-Jul-13 08:31N 22°34' E 114°16'18 3.7
2014-Jul-13 03:33N 22°19' E 114°05'3 1.9
2014-Jul-13 02:08N 22°20' E 114°08'1 0.0
2014-Jul-12 09:04N 22°20' E 114°07'17113.6
2014-Jul-11 20:31N 23°01' E 117°07'2820.6
2014-Jul-11 19:09N 23°20' E 117°30'1321.2
2014-Jul-11 18:33N 23°28' E 117°40'2121.2
2014-Jul-11 17:33N 23°40' E 117°59'2321.1
2014-Jul-11 16:28N 23°54' E 118°19'1820.1
2014-Jul-11 15:33N 24°12' E 118°19'1413.6
2014-Jul-11 14:33N 24°22' E 118°08'8 2.0
2014-Jul-11 10:27N 24°27' E 118°01'0 0.0
2014-Jul-11 09:33N 24°27' E 118°01'0 0.0
2014-Jul-11 08:27N 24°27' E 118°01'0 0.0
2014-Jul-11 07:33N 24°27' E 118°01'0 0.0
2014-Jul-11 06:27N 24°27' E 118°01'0 0.0
2014-Jul-11 05:27N 24°27' E 118°01'0 0.0
2014-Jul-11 04:27N 24°27' E 118°01'0 0.0
2014-Jul-11 03:27N 24°27' E 118°01'0 0.0
2014-Jul-11 02:33N 24°27' E 118°01'0 0.0
2014-Jul-11 01:27N 24°27' E 118°01'0 0.0
2014-Jul-11 00:27N 24°27' E 118°01'0 0.0
2014-Jul-10 23:21N 24°27' E 118°01'0 0.0
2014-Jul-10 22:09N 24°27' E 118°01'0 0.0
2014-Jul-10 21:15N 24°27' E 118°01'0 0.0
2014-Jul-10 20:27N 24°27' E 118°01'0 0.0
2014-Jul-10 19:21N 24°27' E 118°01'0 0.0
2014-Jul-10 18:33N 24°27' E 118°01'0 0.0
2014-Jul-10 17:15N 24°27' E 118°01'0 0.0
2014-Jul-10 16:09N 24°27' E 118°01'0 0.0
2014-Jul-10 12:33N 24°27' E 118°01'0 0.0
2014-Jul-10 10:27N 24°27' E 118°01'0 0.0
2014-Jul-10 09:33N 24°27' E 118°01'6 6.5
2014-Jul-10 08:33N 24°24' E 118°07'6 6.3
2014-Jul-10 07:33N 24°21' E 118°13'0 0.1
2014-Jul-10 06:32N 24°21' E 118°13'0 0.0
2014-Jul-10 05:32N 24°21' E 118°13'0 0.1
2014-Jul-10 04:32N 24°21' E 118°13'0 0.2
2014-Jul-10 03:33N 24°21' E 118°13'0 0.1
2014-Jul-10 02:32N 24°21' E 118°13'0 0.0
2014-Jul-10 01:32N 24°21' E 118°13'0 0.0
2014-Jul-10 00:32N 24°21' E 118°13'0 0.1
2014-Jul-09 23:26N 24°21' E 118°13'0 0.0
2014-Jul-09 22:08N 24°21' E 118°13'0 0.1
2014-Jul-09 21:32N 24°21' E 118°13'0 0.1
2014-Jul-09 20:26N 24°21' E 118°13'0 0.1
2014-Jul-09 19:26N 24°21' E 118°13'0 0.1
2014-Jul-09 18:32N 24°21' E 118°13'0 0.0
2014-Jul-09 17:32N 24°21' E 118°13'0 0.0
2014-Jul-09 16:32N 24°21' E 118°13'0 0.1
2014-Jul-09 15:32N 24°21' E 118°13'0 0.1
2014-Jul-09 14:08N 24°21' E 118°13'  
Track history (hours):
 
Tides and Currents Weather Stations Pressure Air Temp Water Temp Dewpoint Dewpoint Depression Visibility Wind Speed Wind Dir Waves Ship Positions

Lions Gate Bridge

Last reported at 2014-Jul-19 10:32 UTC. Time now 2014-Jul-24 17:51 UTC.
Position N 35°28' E 141°01'.

Length 284.7 m; beam 40 m.

Type: Cargo ship. MMSI: 351086000.

Date/timePositionNaut miles runAvg speedWind from/ knotsBaromVisibWave heightAir tempDewpointWater temp
2014-Jul-19 10:32N 35°28' E 141°01'2520.8
2014-Jul-19 09:20N 35°10' E 140°40'1519.4
2014-Jul-19 08:33N 34°59' E 140°26'2019.8
2014-Jul-19 07:34N 34°52' E 140°04'1717.3
2014-Jul-19 06:33N 34°54' E 139°43'1717.4
2014-Jul-19 05:33N 35°11' E 139°46'1211.8
2014-Jul-19 04:33N 35°22' E 139°42'1312.9
2014-Jul-19 03:33N 35°34' E 139°49'3 3.4
2014-Jul-19 02:31N 35°37' E 139°46'0 0.0
2014-Jul-19 01:31N 35°37' E 139°46'0 0.0
2014-Jul-19 00:31N 35°37' E 139°46'0 0.0
2014-Jul-18 23:31N 35°37' E 139°46'0 0.0
2014-Jul-18 22:31N 35°37' E 139°46'0 0.0
2014-Jul-18 21:31N 35°37' E 139°46'0 0.0
2014-Jul-18 20:28N 35°37' E 139°46'0 0.0
2014-Jul-18 19:31N 35°37' E 139°46'0 0.0
2014-Jul-18 18:25N 35°37' E 139°46'0 0.0
2014-Jul-18 17:25N 35°37' E 139°46'0 0.0
2014-Jul-18 16:31N 35°37' E 139°46'0 0.0
2014-Jul-18 15:31N 35°37' E 139°46'0 0.0
2014-Jul-18 14:31N 35°37' E 139°46'0 0.0
2014-Jul-18 13:28N 35°37' E 139°46'0 0.0
2014-Jul-18 12:28N 35°37' E 139°46'0 0.0
2014-Jul-18 11:31N 35°37' E 139°46'0 0.0
2014-Jul-18 10:31N 35°37' E 139°46'0 0.0
2014-Jul-18 09:28N 35°37' E 139°46'0 0.0
2014-Jul-18 08:31N 35°37' E 139°46'3 3.0
2014-Jul-18 07:33N 35°35' E 139°48'1111.1
2014-Jul-18 06:34N 35°24' E 139°46'1212.0
2014-Jul-18 05:34N 35°12' E 139°47'9 9.3
2014-Jul-18 04:34N 35°03' E 139°42'1010.1
2014-Jul-18 03:33N 34°58' E 139°31'5717.1
2014-Jul-18 00:13N 34°28' E 138°32'  
2014-Jul-14 22:23N 24°49' E 119°42'2123.9
2014-Jul-14 21:31N 24°37' E 119°23'2322.6
2014-Jul-14 20:29N 24°24' E 119°02'2921.8
2014-Jul-14 19:08N 24°05' E 118°36'1321.5
2014-Jul-14 18:33N 23°58' E 118°25'2221.7
2014-Jul-14 17:32N 23°44' E 118°07'7223.5
2014-Jul-14 14:27N 23°00' E 117°04'2223.4
2014-Jul-14 13:32N 22°47' E 116°45'13819.6
2014-Jul-14 06:31N 22°34' E 114°17'1 1.4
2014-Jul-14 05:31N 22°34' E 114°16'0 0.0
2014-Jul-14 04:31N 22°34' E 114°16'0 0.0
2014-Jul-14 03:32N 22°34' E 114°16'0 0.0
2014-Jul-14 02:32N 22°34' E 114°16'0 0.0
2014-Jul-14 01:32N 22°34' E 114°16'0 0.0
2014-Jul-14 00:32N 22°34' E 114°16'0 0.0
2014-Jul-13 23:32N 22°34' E 114°16'0 0.0
2014-Jul-13 22:31N 22°34' E 114°16'0 0.0
2014-Jul-13 21:32N 22°34' E 114°16'0 0.0
2014-Jul-13 20:32N 22°34' E 114°16'0 0.0
2014-Jul-13 19:32N 22°34' E 114°16'0 0.0
2014-Jul-13 18:31N 22°34' E 114°16'0 0.0
2014-Jul-13 17:31N 22°34' E 114°16'0 0.0
2014-Jul-13 16:32N 22°34' E 114°16'0 0.0
2014-Jul-13 15:31N 22°34' E 114°16'0 0.0
2014-Jul-13 14:31N 22°34' E 114°16'0 0.0
2014-Jul-13 13:31N 22°34' E 114°16'0 0.1
2014-Jul-13 12:32N 22°34' E 114°15'0 0.1
2014-Jul-13 11:32N 22°34' E 114°16'0 0.1
2014-Jul-13 10:32N 22°34' E 114°15'0 0.1
2014-Jul-13 09:31N 22°34' E 114°16'0 0.0
2014-Jul-13 08:31N 22°34' E 114°16'18 3.7
2014-Jul-13 03:33N 22°19' E 114°05'3 1.9
2014-Jul-13 02:08N 22°20' E 114°08'1 0.0
2014-Jul-12 09:04N 22°20' E 114°07'17113.6
2014-Jul-11 20:31N 23°01' E 117°07'2820.6
2014-Jul-11 19:09N 23°20' E 117°30'1321.2
2014-Jul-11 18:33N 23°28' E 117°40'2121.2
2014-Jul-11 17:33N 23°40' E 117°59'2321.1
2014-Jul-11 16:28N 23°54' E 118°19'1820.1
2014-Jul-11 15:33N 24°12' E 118°19'1413.6
2014-Jul-11 14:33N 24°22' E 118°08'8 2.0
2014-Jul-11 10:27N 24°27' E 118°01'0 0.0
2014-Jul-11 09:33N 24°27' E 118°01'0 0.0
2014-Jul-11 08:27N 24°27' E 118°01'0 0.0
2014-Jul-11 07:33N 24°27' E 118°01'0 0.0
2014-Jul-11 06:27N 24°27' E 118°01'0 0.0
2014-Jul-11 05:27N 24°27' E 118°01'0 0.0
2014-Jul-11 04:27N 24°27' E 118°01'0 0.0
2014-Jul-11 03:27N 24°27' E 118°01'0 0.0
2014-Jul-11 02:33N 24°27' E 118°01'0 0.0
2014-Jul-11 01:27N 24°27' E 118°01'0 0.0
2014-Jul-11 00:27N 24°27' E 118°01'0 0.0
2014-Jul-10 23:21N 24°27' E 118°01'0 0.0
2014-Jul-10 22:09N 24°27' E 118°01'0 0.0
2014-Jul-10 21:15N 24°27' E 118°01'0 0.0
2014-Jul-10 20:27N 24°27' E 118°01'0 0.0
2014-Jul-10 19:21N 24°27' E 118°01'0 0.0
2014-Jul-10 18:33N 24°27' E 118°01'0 0.0
2014-Jul-10 17:15N 24°27' E 118°01'0 0.0
2014-Jul-10 16:09N 24°27' E 118°01'0 0.0
2014-Jul-10 12:33N 24°27' E 118°01'0 0.0
2014-Jul-10 10:27N 24°27' E 118°01'0 0.0
2014-Jul-10 09:33N 24°27' E 118°01'6 6.5
2014-Jul-10 08:33N 24°24' E 118°07'6 6.3
2014-Jul-10 07:33N 24°21' E 118°13'0 0.1
2014-Jul-10 06:32N 24°21' E 118°13'0 0.0
2014-Jul-10 05:32N 24°21' E 118°13'0 0.1
2014-Jul-10 04:32N 24°21' E 118°13'0 0.2
2014-Jul-10 03:33N 24°21' E 118°13'0 0.1
2014-Jul-10 02:32N 24°21' E 118°13'0 0.0
2014-Jul-10 01:32N 24°21' E 118°13'0 0.0
2014-Jul-10 00:32N 24°21' E 118°13'0 0.1
2014-Jul-09 23:26N 24°21' E 118°13'0 0.0
2014-Jul-09 22:08N 24°21' E 118°13'0 0.1
2014-Jul-09 21:32N 24°21' E 118°13'0 0.1
2014-Jul-09 20:26N 24°21' E 118°13'0 0.1
2014-Jul-09 19:26N 24°21' E 118°13'0 0.1
2014-Jul-09 18:32N 24°21' E 118°13'0 0.0
2014-Jul-09 17:32N 24°21' E 118°13'0 0.0
2014-Jul-09 16:32N 24°21' E 118°13'0 0.1
2014-Jul-09 15:32N 24°21' E 118°13'0 0.1
2014-Jul-09 14:08N 24°21' E 118°13'  

Dump ship's entire track history